createdAt,value
2018-09-11T00:01:07.508Z,3.03
2018-09-11T00:03:36.790Z,3.27
2018-09-11T00:06:06.110Z,2.60
2018-09-11T00:08:35.425Z,4.90
2018-09-11T00:11:04.754Z,2.73
2018-09-11T00:13:34.524Z,2.30
2018-09-11T00:16:03.871Z,2.60
2018-09-11T00:18:33.173Z,2.67
2018-09-11T00:21:02.577Z,2.43
2018-09-11T00:23:31.872Z,3.47
2018-09-11T00:26:01.276Z,3.27
2018-09-11T00:28:30.626Z,2.87
2018-09-11T00:30:59.981Z,3.73
2018-09-11T00:33:29.280Z,2.73
2018-09-11T00:35:58.581Z,2.73
2018-09-11T00:38:27.911Z,2.63
2018-09-11T00:40:57.280Z,2.87
2018-09-11T00:43:26.584Z,2.73
2018-09-11T00:45:56.143Z,2.70
2018-09-11T00:48:25.461Z,2.60
2018-09-11T00:50:54.792Z,3.23
2018-09-11T00:53:24.098Z,3.07
2018-09-11T00:55:53.391Z,3.00
2018-09-11T00:58:22.695Z,3.67
2018-09-11T01:00:52.168Z,4.50
2018-09-11T01:03:21.493Z,3.50
2018-09-11T01:05:50.797Z,2.50
2018-09-11T01:08:20.096Z,2.73
2018-09-11T01:10:49.535Z,2.73
2018-09-11T01:13:18.862Z,3.90
2018-09-11T01:15:48.190Z,2.83
2018-09-11T01:18:17.490Z,3.10
2018-09-11T01:20:46.805Z,3.57
2018-09-11T01:23:16.124Z,2.97
2018-09-11T01:25:45.403Z,3.00
2018-09-11T01:28:14.789Z,3.87
2018-09-11T01:30:44.130Z,3.43
2018-09-11T01:33:13.449Z,4.67
2018-09-11T01:35:42.823Z,3.17
2018-09-11T01:38:12.113Z,2.93
2018-09-11T01:40:41.524Z,3.20
2018-09-11T01:43:10.818Z,3.30
2018-09-11T01:45:40.172Z,4.30
2018-09-11T01:48:09.525Z,3.73
2018-09-11T01:50:39.388Z,4.87
2018-09-11T01:53:08.705Z,2.70
2018-09-11T01:55:38.005Z,4.07
2018-09-11T01:58:07.577Z,2.80
2018-09-11T02:00:36.944Z,2.87
2018-09-11T02:03:06.356Z,3.87
2018-09-11T02:05:35.683Z,3.27
2018-09-11T02:08:05.003Z,4.83
2018-09-11T02:10:34.350Z,2.90
2018-09-11T02:13:03.650Z,3.73
2018-09-11T02:15:32.956Z,3.43
2018-09-11T02:18:02.256Z,3.53
2018-09-11T02:20:31.679Z,3.10
2018-09-11T02:23:01.422Z,4.00
2018-09-11T02:25:30.743Z,3.10
2018-09-11T02:28:00.039Z,3.00
2018-09-11T02:30:29.369Z,4.17
2018-09-11T02:32:58.724Z,3.37
2018-09-11T02:35:28.047Z,3.30
2018-09-11T02:37:57.377Z,3.40
2018-09-11T02:40:26.778Z,3.53
2018-09-11T02:42:56.096Z,3.43
2018-09-11T02:45:25.407Z,3.37
2018-09-11T02:47:55.577Z,3.47
2018-09-11T02:50:24.895Z,3.63
2018-09-11T02:52:54.196Z,3.37
2018-09-11T02:55:23.860Z,5.33
2018-09-11T02:57:53.205Z,3.43
2018-09-11T03:00:22.611Z,4.60
2018-09-11T03:02:51.935Z,4.63
2018-09-11T03:05:21.294Z,3.20
2018-09-11T03:07:50.632Z,4.43
2018-09-11T03:10:20.050Z,3.33
2018-09-11T03:12:49.371Z,4.10
2018-09-11T03:15:18.689Z,4.00
2018-09-11T03:17:48.004Z,4.67
2018-09-11T03:20:17.356Z,3.43
2018-09-11T03:22:46.653Z,3.90
2018-09-11T03:25:15.976Z,3.77
2018-09-11T03:27:45.601Z,4.87
2018-09-11T03:30:15.024Z,3.50
2018-09-11T03:32:44.340Z,3.70
2018-09-11T03:35:13.628Z,3.60
2018-09-11T03:37:43.007Z,3.97
2018-09-11T03:40:12.347Z,3.50
2018-09-11T03:42:41.662Z,3.67
2018-09-11T03:45:10.961Z,4.40
2018-09-11T03:47:40.277Z,3.80
2018-09-11T03:50:09.636Z,3.73
2018-09-11T03:52:38.962Z,3.70
2018-09-11T03:55:08.236Z,3.83
2018-09-11T03:57:37.541Z,5.80
2018-09-11T04:00:07.458Z,4.03
2018-09-11T04:02:36.761Z,4.43
2018-09-11T04:05:06.324Z,3.80
2018-09-11T04:07:35.620Z,3.87
2018-09-11T04:10:05.193Z,4.70
2018-09-11T04:12:34.503Z,3.70
2018-09-11T04:15:03.930Z,3.80
2018-09-11T04:17:39.522Z,3.80
2018-09-11T04:20:13.231Z,3.50
2018-09-11T04:22:42.810Z,4.70
2018-09-11T04:25:12.905Z,8.77
2018-09-11T04:27:49.404Z,5.23
2018-09-11T04:30:18.881Z,8.87
2018-09-11T04:32:48.248Z,15.13
2018-09-11T04:35:18.638Z,6.10
2018-09-11T04:37:48.567Z,6.93
2018-09-11T04:40:24.150Z,8.00
2018-09-11T04:42:53.486Z,10.87
2018-09-11T04:45:22.826Z,7.50
2018-09-11T04:47:52.148Z,6.87
2018-09-11T04:50:21.630Z,11.93
2018-09-11T04:52:51.445Z,9.13
2018-09-11T04:55:20.896Z,9.77
2018-09-11T04:57:50.334Z,13.20
2018-09-11T05:00:19.905Z,9.50
2018-09-11T05:02:49.338Z,7.30
2018-09-11T05:05:18.799Z,6.30
2018-09-11T05:07:49.097Z,5.43
2018-09-11T05:10:18.862Z,7.13
2018-09-11T05:12:48.259Z,7.87
2018-09-11T05:15:18.088Z,5.13
2018-09-11T05:17:47.532Z,4.20
2018-09-11T05:20:17.174Z,5.47
2018-09-11T05:22:46.840Z,5.33
2018-09-11T05:25:17.156Z,6.83
2018-09-11T05:27:47.354Z,7.47
2018-09-11T05:30:16.787Z,5.97
2018-09-11T05:32:46.134Z,6.53
2018-09-11T05:35:15.564Z,5.70
2018-09-11T05:37:45.115Z,7.20
2018-09-11T05:40:14.550Z,5.13
2018-09-11T05:42:43.951Z,5.03
2018-09-11T05:45:13.288Z,4.50
2018-09-11T05:47:42.661Z,6.43
2018-09-11T05:50:12.075Z,6.50
2018-09-11T05:52:41.865Z,6.70
2018-09-11T05:55:11.243Z,4.80
2018-09-11T05:57:40.708Z,5.70
2018-09-11T06:00:10.249Z,4.30
2018-09-11T06:02:39.578Z,5.37
2018-09-11T06:05:09.177Z,4.47
2018-09-11T06:07:39.140Z,4.90
2018-09-11T06:10:08.608Z,5.10
2018-09-11T06:12:37.957Z,4.90
2018-09-11T06:15:07.260Z,4.83
2018-09-11T06:17:36.592Z,4.00
2018-09-11T06:20:06.602Z,4.83
2018-09-11T06:22:36.676Z,5.30
2018-09-11T06:25:06.052Z,4.10
2018-09-11T06:27:35.409Z,4.50
2018-09-11T06:30:05.197Z,3.93
2018-09-11T06:32:34.533Z,4.73
2018-09-11T06:35:04.179Z,4.30
2018-09-11T06:37:34.190Z,4.10
2018-09-11T06:40:05.770Z,3.57
2018-09-11T06:42:35.338Z,4.50
2018-09-11T06:45:05.012Z,3.90
2018-09-11T06:47:34.446Z,4.00
2018-09-11T06:50:06.342Z,5.30
2018-09-11T06:52:37.919Z,4.53
2018-09-11T06:55:07.366Z,3.67
2018-09-11T06:57:36.814Z,4.73
2018-09-11T07:00:06.399Z,3.90
2018-09-11T07:02:35.776Z,5.53
2018-09-11T07:05:05.307Z,3.83
2018-09-11T07:07:34.685Z,3.53
2018-09-11T07:10:04.311Z,4.13
2018-09-11T07:12:33.780Z,4.10
2018-09-11T07:15:03.239Z,4.00
2018-09-11T07:17:32.739Z,3.47
2018-09-11T07:20:02.421Z,4.00
2018-09-11T07:22:31.812Z,4.27
2018-09-11T07:25:01.346Z,5.00
2018-09-11T07:27:30.782Z,3.23
2018-09-11T07:30:00.220Z,3.40
2018-09-11T07:32:29.808Z,3.50
2018-09-11T07:34:59.246Z,4.03
2018-09-11T07:37:28.712Z,3.73
2018-09-11T07:39:58.249Z,3.83
2018-09-11T07:42:27.674Z,4.00
2018-09-11T07:44:57.125Z,3.40
2018-09-11T07:47:26.697Z,3.50
2018-09-11T07:49:56.189Z,4.27
2018-09-11T07:52:25.725Z,3.47
2018-09-11T07:54:55.207Z,3.50
2018-09-11T07:57:24.828Z,3.33
2018-09-11T07:59:54.288Z,3.37
2018-09-11T08:02:23.741Z,3.53
2018-09-11T08:04:53.198Z,3.40
2018-09-11T08:07:22.665Z,3.30
2018-09-11T08:09:52.069Z,3.97
2018-09-11T08:12:21.515Z,5.27
2018-09-11T08:14:51.072Z,3.97
2018-09-11T08:17:20.570Z,3.30
2018-09-11T08:19:50.215Z,3.60
2018-09-11T08:22:19.828Z,3.43
2018-09-11T08:24:49.307Z,3.20
2018-09-11T08:27:18.734Z,3.17
2018-09-11T08:29:48.269Z,3.63
2018-09-11T08:32:17.714Z,2.80
2018-09-11T08:34:47.360Z,3.60
2018-09-11T08:37:16.889Z,3.17
2018-09-11T08:39:46.377Z,2.60
2018-09-11T08:42:15.960Z,2.90
2018-09-11T08:44:45.487Z,2.87
2018-09-11T08:47:15.524Z,3.73
2018-09-11T08:49:45.009Z,2.90
2018-09-11T08:52:14.573Z,3.20
2018-09-11T08:54:44.073Z,3.03
2018-09-11T08:57:13.601Z,2.90
2018-09-11T08:59:43.074Z,3.23
2018-09-11T09:02:12.618Z,3.67
2018-09-11T09:04:42.108Z,3.20
2018-09-11T09:07:11.494Z,2.87
2018-09-11T09:09:40.948Z,3.27
2018-09-11T09:12:10.401Z,2.97
2018-09-11T09:14:39.891Z,3.40
2018-09-11T09:17:09.320Z,4.47
2018-09-11T09:19:39.306Z,2.90
2018-09-11T09:22:08.736Z,2.97
2018-09-11T09:24:38.232Z,3.03
2018-09-11T09:27:07.851Z,3.23
2018-09-11T09:29:37.274Z,3.13
2018-09-11T09:32:06.764Z,3.10
2018-09-11T09:34:36.246Z,2.83
2018-09-11T09:37:05.848Z,3.80
2018-09-11T09:39:35.271Z,2.97
2018-09-11T09:42:04.867Z,2.77
2018-09-11T09:44:34.302Z,2.97
2018-09-11T09:47:03.695Z,2.60
2018-09-11T09:49:33.126Z,4.00
2018-09-11T09:52:02.986Z,2.60
2018-09-11T09:54:32.471Z,3.67
2018-09-11T09:57:02.054Z,4.47
2018-09-11T09:59:31.561Z,3.10
2018-09-11T10:02:04.229Z,2.73
2018-09-11T10:04:34.237Z,3.67
2018-09-11T10:07:03.600Z,3.53
2018-09-11T10:09:33.057Z,3.03
2018-09-11T10:12:02.674Z,3.00
2018-09-11T10:14:32.146Z,3.63
2018-09-11T10:17:01.603Z,2.93
2018-09-11T10:19:31.137Z,2.63
2018-09-11T10:22:00.647Z,2.83
2018-09-11T10:24:30.184Z,3.10
2018-09-11T10:26:59.803Z,2.93
2018-09-11T10:29:29.471Z,3.20
2018-09-11T10:31:59.021Z,3.23
2018-09-11T10:34:28.484Z,3.23
2018-09-11T10:36:58.056Z,2.97
2018-09-11T10:39:27.477Z,3.40
2018-09-11T10:41:57.004Z,3.50
2018-09-11T10:44:26.464Z,4.00
2018-09-11T10:46:56.001Z,3.10
2018-09-11T10:49:25.470Z,2.67
2018-09-11T10:51:55.159Z,2.80
2018-09-11T10:54:24.583Z,2.90
2018-09-11T10:56:54.093Z,2.87
2018-09-11T10:59:23.565Z,2.90
2018-09-11T11:01:53.053Z,2.70
2018-09-11T11:04:22.570Z,3.13
2018-09-11T11:06:52.022Z,2.70
2018-09-11T11:09:21.439Z,2.67
2018-09-11T11:11:50.856Z,3.00
2018-09-11T11:14:20.323Z,4.00
2018-09-11T11:16:49.872Z,2.97
2018-09-11T11:19:19.485Z,3.50
2018-09-11T11:21:49.008Z,4.10
2018-09-11T11:24:18.576Z,3.00
2018-09-11T11:26:47.985Z,2.70
2018-09-11T11:29:17.764Z,2.93
2018-09-11T11:31:47.376Z,2.60
2018-09-11T11:34:16.841Z,3.07
2018-09-11T11:36:46.359Z,2.70
2018-09-11T11:39:15.709Z,2.47
2018-09-11T11:41:45.214Z,3.07
2018-09-11T11:44:14.542Z,2.80
2018-09-11T11:46:43.994Z,3.10
2018-09-11T11:49:13.492Z,2.93
2018-09-11T11:51:43.062Z,2.70
2018-09-11T11:54:12.545Z,2.73
2018-09-11T11:56:42.049Z,2.80
2018-09-11T11:59:11.576Z,3.33
2018-09-11T12:01:41.269Z,2.70
2018-09-11T12:04:10.730Z,2.60
2018-09-11T12:06:40.221Z,2.90
2018-09-11T12:09:11.664Z,2.87
2018-09-11T12:11:41.580Z,2.43
2018-09-11T12:14:11.031Z,2.63
2018-09-11T12:16:40.437Z,2.80
2018-09-11T12:19:09.826Z,3.70
2018-09-11T12:21:39.207Z,3.13
2018-09-11T12:24:08.656Z,2.57
2018-09-11T12:26:38.120Z,2.77
2018-09-11T12:29:08.197Z,2.60
2018-09-11T12:31:37.655Z,2.73
2018-09-11T12:34:07.384Z,2.57
2018-09-11T12:36:36.924Z,2.70
2018-09-11T12:39:08.389Z,2.80
2018-09-11T12:41:37.926Z,2.60
2018-09-11T12:44:07.412Z,2.60
2018-09-11T12:46:37.174Z,2.57
2018-09-11T12:49:06.330Z,2.70
2018-09-11T12:51:35.820Z,2.63
2018-09-11T12:54:05.328Z,3.53
2018-09-11T12:56:34.779Z,2.50
2018-09-11T12:59:04.228Z,3.00
2018-09-11T13:01:33.718Z,2.70
2018-09-11T13:04:03.213Z,2.40
2018-09-11T13:06:32.819Z,2.60
2018-09-11T13:09:02.285Z,2.80
2018-09-11T13:11:31.745Z,2.90
2018-09-11T13:14:01.196Z,2.50
2018-09-11T13:16:30.718Z,2.57
2018-09-11T13:19:00.186Z,2.90
2018-09-11T13:21:29.604Z,2.50
2018-09-11T13:23:59.043Z,2.53
2018-09-11T13:26:28.543Z,2.80
2018-09-11T13:28:58.000Z,2.43
2018-09-11T13:31:27.474Z,2.50
2018-09-11T13:33:56.971Z,2.73
2018-09-11T13:36:26.700Z,2.53
2018-09-11T13:38:56.176Z,2.73
2018-09-11T13:41:25.783Z,2.53
2018-09-11T13:43:55.196Z,2.40
2018-09-11T13:46:24.620Z,2.70
2018-09-11T13:48:54.057Z,2.40
2018-09-11T13:51:23.616Z,2.60
2018-09-11T13:53:53.034Z,2.50
2018-09-11T13:56:22.556Z,2.90
2018-09-11T13:58:52.020Z,2.70
2018-09-11T14:01:21.665Z,2.63
2018-09-11T14:03:51.124Z,2.37
2018-09-11T14:06:20.610Z,3.00
2018-09-11T14:08:50.024Z,2.70
2018-09-11T14:11:19.982Z,2.50
2018-09-11T14:13:49.452Z,2.53
2018-09-11T14:16:19.013Z,2.77
2018-09-11T14:18:48.446Z,2.60
2018-09-11T14:21:17.968Z,2.50
2018-09-11T14:23:47.445Z,2.63
2018-09-11T14:26:16.856Z,2.67
2018-09-11T14:28:46.410Z,2.73
2018-09-11T14:31:15.856Z,2.70
2018-09-11T14:33:45.268Z,2.50
2018-09-11T14:36:14.680Z,2.60
2018-09-11T14:38:44.120Z,2.50
2018-09-11T14:41:13.581Z,2.37
2018-09-11T14:43:43.287Z,2.90
2018-09-11T14:46:12.770Z,2.80
2018-09-11T14:48:42.200Z,3.33
2018-09-11T14:51:11.722Z,2.43
2018-09-11T14:53:41.101Z,2.40
2018-09-11T14:56:10.547Z,2.70
2018-09-11T14:58:40.133Z,2.47
2018-09-11T15:01:09.606Z,3.00
2018-09-11T15:03:39.075Z,2.70
2018-09-11T15:06:08.615Z,2.83
2018-09-11T15:08:38.028Z,2.60
2018-09-11T15:11:07.651Z,2.67
2018-09-11T15:13:37.093Z,2.40
2018-09-11T15:16:06.977Z,2.63
2018-09-11T15:18:36.514Z,2.37
2018-09-11T15:21:06.052Z,2.27
2018-09-11T15:23:35.592Z,2.60
2018-09-11T15:26:05.037Z,2.30
2018-09-11T15:28:34.532Z,2.70
2018-09-11T15:31:04.014Z,2.60
2018-09-11T15:33:33.467Z,2.67
2018-09-11T15:36:02.976Z,4.80
2018-09-11T15:38:32.661Z,2.40
2018-09-11T15:41:02.108Z,2.57
2018-09-11T15:43:31.608Z,2.30
2018-09-11T15:46:01.026Z,2.77
2018-09-11T15:48:30.821Z,2.70
2018-09-11T15:51:00.386Z,2.90
2018-09-11T15:53:29.857Z,2.40
2018-09-11T15:55:59.427Z,2.87
2018-09-11T15:58:28.868Z,2.77
2018-09-11T16:00:58.432Z,2.50
2018-09-11T16:03:27.934Z,2.47
2018-09-11T16:05:57.349Z,2.43
2018-09-11T16:08:26.745Z,2.70
2018-09-11T16:10:56.193Z,2.50
2018-09-11T16:13:25.708Z,2.53
2018-09-11T16:15:55.136Z,2.50
2018-09-11T16:18:24.854Z,2.60
2018-09-11T16:20:54.796Z,2.60
2018-09-11T16:23:24.365Z,2.60
2018-09-11T16:25:53.808Z,2.47
2018-09-11T16:28:23.332Z,2.63
2018-09-11T16:30:52.849Z,3.23
2018-09-11T16:33:22.299Z,2.77
2018-09-11T16:35:51.857Z,2.67
2018-09-11T16:38:21.362Z,2.77
2018-09-11T16:40:50.896Z,2.70
2018-09-11T16:43:20.353Z,2.93
2018-09-11T16:45:49.873Z,2.53
2018-09-11T16:48:19.307Z,2.40
2018-09-11T16:50:48.857Z,2.63
2018-09-11T16:53:18.687Z,2.50
2018-09-11T16:55:48.173Z,2.30
2018-09-11T16:58:17.610Z,2.40
2018-09-11T17:00:47.317Z,2.83
2018-09-11T17:03:16.809Z,2.30
2018-09-11T17:05:46.261Z,2.50
2018-09-11T17:08:15.736Z,2.87
2018-09-11T17:10:45.400Z,2.50
2018-09-11T17:13:15.067Z,2.80
2018-09-11T17:15:44.520Z,2.20
2018-09-11T17:18:14.005Z,2.53
2018-09-11T17:20:43.514Z,2.40
2018-09-11T17:23:13.052Z,2.60
2018-09-11T17:25:42.861Z,2.40
2018-09-11T17:28:12.367Z,2.90
2018-09-11T17:30:41.759Z,2.57
2018-09-11T17:33:11.182Z,2.30
2018-09-11T17:35:40.625Z,2.40
2018-09-11T17:38:10.154Z,2.53
2018-09-11T17:40:39.697Z,2.40
2018-09-11T17:43:09.080Z,2.53
2018-09-11T17:45:38.488Z,2.40
2018-09-11T17:48:08.006Z,2.40
2018-09-11T17:50:37.545Z,2.00
2018-09-11T17:53:07.301Z,2.67
2018-09-11T17:55:36.838Z,2.70
2018-09-11T17:58:06.732Z,2.60
2018-09-11T18:00:36.265Z,2.40
2018-09-11T18:03:05.726Z,2.70
2018-09-11T18:05:35.189Z,2.50
2018-09-11T18:08:04.610Z,2.60
2018-09-11T18:10:34.126Z,2.60
2018-09-11T18:13:03.835Z,2.40
2018-09-11T18:15:33.399Z,2.20
2018-09-11T18:18:02.816Z,2.53
2018-09-11T18:20:32.233Z,2.50
2018-09-11T18:23:01.774Z,2.53
2018-09-11T18:25:31.287Z,2.40
2018-09-11T18:28:00.772Z,2.70
2018-09-11T18:30:30.600Z,2.60
2018-09-11T18:33:00.064Z,2.60
2018-09-11T18:35:29.473Z,2.60
2018-09-11T18:37:58.972Z,2.73
2018-09-11T18:40:28.414Z,2.40
2018-09-11T18:42:57.888Z,2.27
2018-09-11T18:45:27.289Z,2.87
2018-09-11T18:47:56.850Z,2.50
2018-09-11T18:50:26.345Z,2.43
2018-09-11T18:52:55.806Z,3.30
2018-09-11T18:55:25.236Z,2.40
2018-09-11T18:57:54.793Z,2.50
2018-09-11T19:00:31.610Z,2.30
2018-09-11T19:03:02.579Z,2.30
2018-09-11T19:05:32.068Z,2.30
2018-09-11T19:08:01.994Z,2.67
2018-09-11T19:10:31.830Z,2.40
2018-09-11T19:13:01.285Z,2.37
2018-09-11T19:15:30.820Z,2.50
2018-09-11T19:18:00.277Z,2.87
2018-09-11T19:20:29.845Z,2.40
2018-09-11T19:22:59.255Z,2.67
2018-09-11T19:25:28.706Z,2.33
2018-09-11T19:27:58.209Z,2.23
2018-09-11T19:30:27.837Z,2.40
2018-09-11T19:32:57.323Z,3.00
2018-09-11T19:35:26.806Z,3.10
2018-09-11T19:37:56.266Z,2.60
2018-09-11T19:40:25.881Z,2.60
2018-09-11T19:42:55.273Z,3.67
2018-09-11T19:45:24.799Z,4.47
2018-09-11T19:47:54.184Z,4.33
2018-09-11T19:50:23.764Z,4.67
2018-09-11T19:52:53.188Z,6.10
2018-09-11T19:55:22.563Z,5.10
2018-09-11T19:57:52.100Z,7.10
2018-09-11T20:00:21.553Z,9.17
2018-09-11T20:02:50.957Z,12.77
2018-09-11T20:05:20.725Z,8.13
2018-09-11T20:07:50.164Z,10.30
2018-09-11T20:10:19.670Z,6.80
2018-09-11T20:12:49.097Z,9.87
2018-09-11T20:15:18.555Z,12.90
2018-09-11T20:17:48.244Z,11.40
2018-09-11T20:20:17.763Z,11.77
2018-09-11T20:22:47.181Z,14.33
2018-09-11T20:25:16.750Z,14.20
2018-09-11T20:27:46.229Z,11.43
2018-09-11T20:30:16.398Z,13.10
2018-09-11T20:32:46.219Z,8.63
2018-09-11T20:35:15.533Z,16.47
2018-09-11T20:37:44.865Z,8.80
2018-09-11T20:40:14.290Z,14.53
2018-09-11T20:42:43.648Z,9.43
2018-09-11T20:45:13.001Z,13.07
2018-09-11T20:47:42.372Z,8.80
2018-09-11T20:50:11.693Z,11.40
2018-09-11T20:52:40.993Z,9.47
2018-09-11T20:55:10.279Z,9.17
2018-09-11T20:57:39.592Z,10.73
2018-09-11T21:00:08.982Z,8.80
2018-09-11T21:02:38.281Z,11.93
2018-09-11T21:05:07.658Z,11.73
2018-09-11T21:07:36.961Z,8.27
2018-09-11T21:10:06.334Z,6.87
2018-09-11T21:12:35.684Z,8.90
2018-09-11T21:15:05.045Z,5.40
2018-09-11T21:17:34.713Z,9.10
2018-09-11T21:20:04.044Z,12.57
2018-09-11T21:22:33.345Z,7.17
2018-09-11T21:25:02.644Z,6.53
2018-09-11T21:27:31.967Z,8.13
2018-09-11T21:30:01.365Z,4.43
2018-09-11T21:32:30.703Z,8.73
2018-09-11T21:35:00.029Z,3.77
2018-09-11T21:37:29.385Z,7.73
2018-09-11T21:39:58.704Z,6.33
2018-09-11T21:42:28.032Z,5.30
2018-09-11T21:44:57.359Z,4.13
2018-09-11T21:47:26.659Z,4.90
2018-09-11T21:49:56.023Z,5.90
2018-09-11T21:52:25.424Z,5.27
2018-09-11T21:54:54.948Z,4.70
2018-09-11T21:57:24.264Z,5.27
2018-09-11T21:59:53.573Z,3.77
2018-09-11T22:02:22.889Z,6.33
2018-09-11T22:04:52.224Z,4.77
2018-09-11T22:07:21.549Z,6.73
2018-09-11T22:09:50.943Z,3.60
2018-09-11T22:12:20.534Z,5.67
2018-09-11T22:14:49.880Z,3.83
2018-09-11T22:17:19.241Z,4.70
2018-09-11T22:19:48.537Z,3.67
2018-09-11T22:22:17.885Z,5.33
2018-09-11T22:24:47.212Z,5.70
2018-09-11T22:27:16.517Z,4.03
2018-09-11T22:29:45.817Z,5.60
2018-09-11T22:32:15.180Z,5.27
2018-09-11T22:34:44.491Z,4.93
2018-09-11T22:37:13.816Z,5.27
2018-09-11T22:39:43.106Z,3.77
2018-09-11T22:42:12.522Z,3.10
2018-09-11T22:44:41.828Z,4.33
2018-09-11T22:47:11.191Z,2.80
2018-09-11T22:49:40.489Z,3.23
2018-09-11T22:52:09.899Z,3.80
2018-09-11T22:54:39.289Z,4.23
2018-09-11T22:57:08.738Z,4.83
2018-09-11T22:59:38.121Z,3.93
2018-09-11T23:02:07.562Z,3.30
2018-09-11T23:04:36.877Z,2.70
2018-09-11T23:07:06.176Z,2.97
2018-09-11T23:09:35.513Z,3.37
2018-09-11T23:12:04.911Z,3.30
2018-09-11T23:14:34.244Z,3.10
2018-09-11T23:17:03.670Z,3.27
2018-09-11T23:19:33.016Z,3.17
2018-09-11T23:28:51.033Z,3.63
2018-09-11T23:31:20.401Z,4.20
2018-09-11T23:33:49.730Z,3.60
2018-09-11T23:36:19.073Z,3.13
2018-09-11T23:38:48.378Z,3.30
2018-09-11T23:41:17.812Z,3.70
2018-09-11T23:43:47.622Z,2.83
2018-09-11T23:46:16.995Z,3.30
2018-09-11T23:48:46.310Z,3.20
2018-09-11T23:51:15.626Z,3.27
2018-09-11T23:53:44.920Z,3.33
2018-09-11T23:56:14.229Z,3.17
2018-09-11T23:58:43.521Z,3.10
